sensor_id;sensor_type;location;lat;lon;timestamp;pressure;altitude;pressure_sealevel;temperature;humidity
18819;BME280;9537;45.594;9.294;2023-03-21T00:00:03;99985.22;;;9.12;74.96
18819;BME280;9537;45.594;9.294;2023-03-21T00:01:05;99981.38;;;9.07;75.10
18819;BME280;9537;45.594;9.294;2023-03-21T00:02:06;99982.53;;;9.04;75.15
18819;BME280;9537;45.594;9.294;2023-03-21T00:03:08;99978.41;;;9.01;75.24
18819;BME280;9537;45.594;9.294;2023-03-21T00:04:09;99981.03;;;9.01;75.79
18819;BME280;9537;45.594;9.294;2023-03-21T00:05:12;99974.41;;;8.97;75.49
18819;BME280;9537;45.594;9.294;2023-03-21T00:06:14;99972.09;;;8.94;75.84
18819;BME280;9537;45.594;9.294;2023-03-21T00:07:16;99969.47;;;8.94;75.60
18819;BME280;9537;45.594;9.294;2023-03-21T00:08:17;99974.72;;;8.94;76.40
18819;BME280;9537;45.594;9.294;2023-03-21T00:09:19;99970.44;;;8.93;76.06
18819;BME280;9537;45.594;9.294;2023-03-21T00:10:20;99976.84;;;8.91;75.96
18819;BME280;9537;45.594;9.294;2023-03-21T00:11:22;99964.63;;;8.90;76.56
18819;BME280;9537;45.594;9.294;2023-03-21T00:12:23;99971.34;;;8.84;76.40
18819;BME280;9537;45.594;9.294;2023-03-21T00:13:26;99974.97;;;8.83;76.81
18819;BME280;9537;45.594;9.294;2023-03-21T00:14:28;99973.34;;;8.82;76.41
18819;BME280;9537;45.594;9.294;2023-03-21T00:15:30;99974.59;;;8.78;76.62
18819;BME280;9537;45.594;9.294;2023-03-21T00:16:31;99973.94;;;8.76;77.28
18819;BME280;9537;45.594;9.294;2023-03-21T00:17:34;99976.91;;;8.73;76.63
18819;BME280;9537;45.594;9.294;2023-03-21T00:18:35;99973.72;;;8.69;76.67
18819;BME280;9537;45.594;9.294;2023-03-21T00:19:41;99971.09;;;8.69;76.88
18819;BME280;9537;45.594;9.294;2023-03-21T00:20:44;99967.50;;;8.70;76.44
18819;BME280;9537;45.594;9.294;2023-03-21T00:21:57;99966.63;;;8.70;76.42
18819;BME280;9537;45.594;9.294;2023-03-21T00:22:58;99971.31;;;8.76;76.21
18819;BME280;9537;45.594;9.294;2023-03-21T00:24:00;99964.25;;;8.76;77.01
18819;BME280;9537;45.594;9.294;2023-03-21T00:25:01;99961.44;;;8.78;76.61
18819;BME280;9537;45.594;9.294;2023-03-21T00:26:03;99964.25;;;8.76;76.85
18819;BME280;9537;45.594;9.294;2023-03-21T00:27:05;99963.41;;;8.76;76.76
18819;BME280;9537;45.594;9.294;2023-03-21T00:28:07;99957.97;;;8.77;76.72
18819;BME280;9537;45.594;9.294;2023-03-21T00:29:08;99963.41;;;8.76;77.04
18819;BME280;9537;45.594;9.294;2023-03-21T00:30:11;99965.06;;;8.77;77.64
18819;BME280;9537;45.594;9.294;2023-03-21T00:31:12;99963.25;;;8.77;77.10
18819;BME280;9537;45.594;9.294;2023-03-21T00:32:14;99957.28;;;8.75;77.54
18819;BME280;9537;45.594;9.294;2023-03-21T00:33:15;99959.78;;;8.77;77.32
18819;BME280;9537;45.594;9.294;2023-03-21T00:34:21;99960.78;;;8.76;77.08
18819;BME280;9537;45.594;9.294;2023-03-21T00:35:21;99960.91;;;8.74;77.23
18819;BME280;9537;45.594;9.294;2023-03-21T00:36:23;99955.16;;;8.71;76.89
18819;BME280;9537;45.594;9.294;2023-03-21T00:37:27;99954.63;;;8.67;76.93
18819;BME280;9537;45.594;9.294;2023-03-21T00:38:29;99953.34;;;8.71;77.02
18819;BME280;9537;45.594;9.294;2023-03-21T00:39:30;99954.16;;;8.72;76.88
18819;BME280;9537;45.594;9.294;2023-03-21T00:40:32;99950.00;;;8.69;75.98
18819;BME280;9537;45.594;9.294;2023-03-21T00:41:33;99951.00;;;8.68;76.31
18819;BME280;9537;45.594;9.294;2023-03-21T00:42:35;99944.41;;;8.64;76.77
18819;BME280;9537;45.594;9.294;2023-03-21T00:43:36;99946.50;;;8.61;77.18
18819;BME280;9537;45.594;9.294;2023-03-21T00:44:39;99945.00;;;8.58;77.27
18819;BME280;9537;45.594;9.294;2023-03-21T00:45:41;99948.63;;;8.57;77.66
18819;BME280;9537;45.594;9.294;2023-03-21T00:46:43;99949.59;;;8.56;77.39
18819;BME280;9537;45.594;9.294;2023-03-21T00:47:44;99942.22;;;8.60;77.87
18819;BME280;9537;45.594;9.294;2023-03-21T00:48:46;99944.84;;;8.60;77.71
18819;BME280;9537;45.594;9.294;2023-03-21T00:49:47;99943.56;;;8.64;77.57
18819;BME280;9537;45.594;9.294;2023-03-21T00:50:51;99936.50;;;8.64;76.94
18819;BME280;9537;45.594;9.294;2023-03-21T00:51:52;99943.56;;;8.64;76.29
18819;BME280;9537;45.594;9.294;2023-03-21T00:52:55;99935.00;;;8.62;77.12
18819;BME280;9537;45.594;9.294;2023-03-21T00:53:57;99941.91;;;8.63;77.21
18819;BME280;9537;45.594;9.294;2023-03-21T00:54:59;99933.88;;;8.64;76.50
18819;BME280;9537;45.594;9.294;2023-03-21T00:56:01;99933.69;;;8.66;77.08
18819;BME280;9537;45.594;9.294;2023-03-21T00:57:03;99936.03;;;8.69;76.56
18819;BME280;9537;45.594;9.294;2023-03-21T00:58:05;99937.53;;;8.71;76.99
18819;BME280;9537;45.594;9.294;2023-03-21T00:59:07;99925.50;;;8.69;76.30
18819;BME280;9537;45.594;9.294;2023-03-21T01:00:10;99921.34;;;8.66;76.81
18819;BME280;9537;45.594;9.294;2023-03-21T01:01:13;99918.06;;;8.64;76.65
18819;BME280;9537;45.594;9.294;2023-03-21T01:02:14;99920.03;;;8.62;76.58
18819;BME280;9537;45.594;9.294;2023-03-21T01:03:22;99915.59;;;8.63;76.12
18819;BME280;9537;45.594;9.294;2023-03-21T01:04:27;99916.25;;;8.65;75.66
18819;BME280;9537;45.594;9.294;2023-03-21T01:05:29;99920.09;;;8.52;75.83
18819;BME280;9537;45.594;9.294;2023-03-21T01:06:46;99920.09;;;8.52;76.40
18819;BME280;9537;45.594;9.294;2023-03-21T01:07:48;99917.78;;;8.49;75.53
18819;BME280;9537;45.594;9.294;2023-03-21T01:08:54;99922.38;;;8.47;75.90
18819;BME280;9537;45.594;9.294;2023-03-21T01:09:56;99914.81;;;8.44;75.83
18819;BME280;9537;45.594;9.294;2023-03-21T01:11:00;99926.16;;;8.45;76.74
18819;BME280;9537;45.594;9.294;2023-03-21T01:12:03;99921.03;;;8.43;75.89
18819;BME280;9537;45.594;9.294;2023-03-21T01:13:04;99919.38;;;8.42;76.79
18819;BME280;9537;45.594;9.294;2023-03-21T01:14:06;99916.13;;;8.48;76.57
18819;BME280;9537;45.594;9.294;2023-03-21T01:15:09;99920.19;;;8.43;76.65
18819;BME280;9537;45.594;9.294;2023-03-21T01:16:10;99916.22;;;8.39;77.35
18819;BME280;9537;45.594;9.294;2023-03-21T01:17:12;99915.16;;;8.31;77.35
18819;BME280;9537;45.594;9.294;2023-03-21T01:18:15;99910.03;;;8.30;77.61
18819;BME280;9537;45.594;9.294;2023-03-21T01:19:19;99914.75;;;8.26;77.14
18819;BME280;9537;45.594;9.294;2023-03-21T01:20:20;99905.53;;;8.22;77.33
18819;BME280;9537;45.594;9.294;2023-03-21T01:21:22;99909.81;;;8.23;77.29
18819;BME280;9537;45.594;9.294;2023-03-21T01:22:23;99905.84;;;8.19;77.27
18819;BME280;9537;45.594;9.294;2023-03-21T01:23:27;99908.00;;;8.24;77.07
18819;BME280;9537;45.594;9.294;2023-03-21T01:24:30;99906.22;;;8.24;77.02
18819;BME280;9537;45.594;9.294;2023-03-21T01:25:32;99905.97;;;8.18;77.47
18819;BME280;9537;45.594;9.294;2023-03-21T01:26:33;99900.06;;;8.16;77.74
18819;BME280;9537;45.594;9.294;2023-03-21T01:27:36;99909.91;;;8.13;77.87
18819;BME280;9537;45.594;9.294;2023-03-21T01:28:39;99899.38;;;8.13;77.12
18819;BME280;9537;45.594;9.294;2023-03-21T01:29:41;99901.84;;;8.15;77.76
18819;BME280;9537;45.594;9.294;2023-03-21T01:30:46;99901.84;;;8.15;77.88
18819;BME280;9537;45.594;9.294;2023-03-21T01:31:48;99907.34;;;8.22;77.57
18819;BME280;9537;45.594;9.294;2023-03-21T01:32:50;99900.56;;;8.19;77.74
18819;BME280;9537;45.594;9.294;2023-03-21T01:33:51;99896.56;;;8.15;77.57
18819;BME280;9537;45.594;9.294;2023-03-21T01:34:53;99897.88;;;8.11;77.81
18819;BME280;9537;45.594;9.294;2023-03-21T01:35:55;99892.09;;;8.07;78.00
18819;BME280;9537;45.594;9.294;2023-03-21T01:36:57;99896.66;;;8.05;78.94
18819;BME280;9537;45.594;9.294;2023-03-21T01:37:58;99892.22;;;8.06;78.21
18819;BME280;9537;45.594;9.294;2023-03-21T01:39:00;99888.78;;;8.05;77.86
18819;BME280;9537;45.594;9.294;2023-03-21T01:40:03;99890.72;;;8.03;77.92
18819;BME280;9537;45.594;9.294;2023-03-21T01:41:06;99889.06;;;8.02;78.39
18819;BME280;9537;45.594;9.294;2023-03-21T01:42:11;99890.28;;;8.08;77.69
18819;BME280;9537;45.594;9.294;2023-03-21T01:43:22;99887.44;;;8.01;77.79
18819;BME280;9537;45.594;9.294;2023-03-21T01:44:25;99887.13;;;8.04;77.81
18819;BME280;9537;45.594;9.294;2023-03-21T01:47:05;99883.13;;;8.00;77.84
18819;BME280;9537;45.594;9.294;2023-03-21T01:48:07;99887.44;;;8.01;77.64
18819;BME280;9537;45.594;9.294;2023-03-21T01:49:12;99882.81;;;8.03;77.65
18819;BME280;9537;45.594;9.294;2023-03-21T01:50:16;99886.97;;;8.06;77.69
18819;BME280;9537;45.594;9.294;2023-03-21T01:51:22;99880.56;;;8.08;77.31
18819;BME280;9537;45.594;9.294;2023-03-21T01:52:28;99884.53;;;8.12;77.30
18819;BME280;9537;45.594;9.294;2023-03-21T01:53:35;99884.19;;;8.07;77.35
18819;BME280;9537;45.594;9.294;2023-03-21T01:54:39;99885.31;;;8.05;76.32
18819;BME280;9537;45.594;9.294;2023-03-21T01:55:42;99877.19;;;7.98;76.85
18819;BME280;9537;45.594;9.294;2023-03-21T01:56:45;99875.84;;;7.94;76.64
18819;BME280;9537;45.594;9.294;2023-03-21T01:57:50;99876.00;;;7.93;77.20
18819;BME280;9537;45.594;9.294;2023-03-21T01:58:59;99871.03;;;7.89;77.02
18819;BME280;9537;45.594;9.294;2023-03-21T02:00:05;99868.56;;;7.88;77.38
18819;BME280;9537;45.594;9.294;2023-03-21T02:01:12;99868.56;;;7.88;77.67
18819;BME280;9537;45.594;9.294;2023-03-21T02:02:18;99863.31;;;7.88;77.87
18819;BME280;9537;45.594;9.294;2023-03-21T02:03:22;99871.03;;;7.89;77.28
18819;BME280;9537;45.594;9.294;2023-03-21T02:04:24;99868.25;;;7.91;77.21
18819;BME280;9537;45.594;9.294;2023-03-21T02:05:32;99870.28;;;7.97;77.53
18819;BME280;9537;45.594;9.294;2023-03-21T02:06:43;99866.00;;;7.96;78.30
18819;BME280;9537;45.594;9.294;2023-03-21T02:07:47;99866.00;;;7.96;78.27
18819;BME280;9537;45.594;9.294;2023-03-21T02:08:51;99870.16;;;7.99;78.14
18819;BME280;9537;45.594;9.294;2023-03-21T02:09:54;99864.59;;;8.02;78.29
18819;BME280;9537;45.594;9.294;2023-03-21T02:10:57;99861.78;;;8.03;78.59
18819;BME280;9537;45.594;9.294;2023-03-21T02:12:00;99863.47;;;8.04;77.88
18819;BME280;9537;45.594;9.294;2023-03-21T02:13:03;99862.47;;;8.05;77.64
18819;BME280;9537;45.594;9.294;2023-03-21T02:14:11;99859.97;;;8.04;77.56
18819;BME280;9537;45.594;9.294;2023-03-21T02:15:14;99857.50;;;8.02;77.44
18819;BME280;9537;45.594;9.294;2023-03-21T02:16:20;99861.94;;;8.02;77.94
18819;BME280;9537;45.594;9.294;2023-03-21T02:17:28;99857.13;;;7.97;76.84
18819;BME280;9537;45.594;9.294;2023-03-21T02:18:37;99858.78;;;7.98;76.88
18819;BME280;9537;45.594;9.294;2023-03-21T02:20:07;99857.06;;;7.89;77.06
18819;BME280;9537;45.594;9.294;2023-03-21T02:21:51;99860.81;;;7.86;77.03
18819;BME280;9537;45.594;9.294;2023-03-21T02:23:25;99846.44;;;7.81;77.61
18819;BME280;9537;45.594;9.294;2023-03-21T02:26:45;99852.19;;;7.76;76.66
18819;BME280;9537;45.594;9.294;2023-03-21T02:27:58;99853.81;;;7.77;77.26
18819;BME280;9537;45.594;9.294;2023-03-21T02:29:08;99847.88;;;7.75;77.27
18819;BME280;9537;45.594;9.294;2023-03-21T02:30:37;99852.19;;;7.76;76.98
18819;BME280;9537;45.594;9.294;2023-03-21T02:31:49;99851.38;;;7.76;77.44
18819;BME280;9537;45.594;9.294;2023-03-21T02:33:05;99853.81;;;7.77;77.46
18819;BME280;9537;45.594;9.294;2023-03-21T02:36:14;99852.25;;;7.84;77.00
18819;BME280;9537;45.594;9.294;2023-03-21T02:37:23;99851.41;;;7.84;77.77
18819;BME280;9537;45.594;9.294;2023-03-21T02:38:31;99844.00;;;7.79;77.63
18819;BME280;9537;45.594;9.294;2023-03-21T02:39:47;99849.09;;;7.81;77.81
18819;BME280;9537;45.594;9.294;2023-03-21T02:41:00;99845.50;;;7.82;77.83
18819;BME280;9537;45.594;9.294;2023-03-21T02:42:05;99842.88;;;7.82;78.58
18819;BME280;9537;45.594;9.294;2023-03-21T02:43:12;99847.75;;;7.77;79.28
18819;BME280;9537;45.594;9.294;2023-03-21T02:44:18;99841.19;;;7.81;79.63
18819;BME280;9537;45.594;9.294;2023-03-21T02:45:24;99849.78;;;7.83;79.70
18819;BME280;9537;45.594;9.294;2023-03-21T02:46:29;99839.63;;;7.88;79.34
18819;BME280;9537;45.594;9.294;2023-03-21T02:47:38;99836.56;;;7.93;79.33
18819;BME280;9537;45.594;9.294;2023-03-21T02:48:46;99837.72;;;7.98;79.05
18819;BME280;9537;45.594;9.294;2023-03-21T02:49:55;99828.56;;;8.02;78.90
18819;BME280;9537;45.594;9.294;2023-03-21T02:50:59;99826.75;;;8.03;77.71
18819;BME280;9537;45.594;9.294;2023-03-21T02:52:04;99826.38;;;7.98;77.88
18819;BME280;9537;45.594;9.294;2023-03-21T02:53:11;99821.28;;;7.96;77.04
18819;BME280;9537;45.594;9.294;2023-03-21T02:54:17;99824.69;;;7.88;77.23
18819;BME280;9537;45.594;9.294;2023-03-21T02:55:21;99831.38;;;7.83;76.91
18819;BME280;9537;45.594;9.294;2023-03-21T02:56:26;99834.72;;;7.75;76.99
18819;BME280;9537;45.594;9.294;2023-03-21T02:57:27;99839.34;;;7.73;77.31
18819;BME280;9537;45.594;9.294;2023-03-21T02:58:31;99836.16;;;7.70;77.49
18819;BME280;9537;45.594;9.294;2023-03-21T02:59:32;99833.00;;;7.66;77.14
18819;BME280;9537;45.594;9.294;2023-03-21T03:00:35;99834.13;;;7.63;77.58
18819;BME280;9537;45.594;9.294;2023-03-21T03:01:38;99838.03;;;7.59;77.52
18819;BME280;9537;45.594;9.294;2023-03-21T03:02:40;99837.75;;;7.62;78.06
18819;BME280;9537;45.594;9.294;2023-03-21T03:03:41;99844.13;;;7.60;78.13
18819;BME280;9537;45.594;9.294;2023-03-21T03:04:43;99844.94;;;7.60;77.61
18819;BME280;9537;45.594;9.294;2023-03-21T03:05:47;99843.00;;;7.62;78.04
18819;BME280;9537;45.594;9.294;2023-03-21T03:07:07;99836.03;;;7.71;76.93
18819;BME280;9537;45.594;9.294;2023-03-21T03:08:23;99835.41;;;7.77;77.23
18819;BME280;9537;45.594;9.294;2023-03-21T03:09:30;99835.03;;;7.72;77.34
18819;BME280;9537;45.594;9.294;2023-03-21T03:10:48;99835.88;;;7.73;77.46
18819;BME280;9537;45.594;9.294;2023-03-21T03:11:58;99827.00;;;7.74;77.80
18819;BME280;9537;45.594;9.294;2023-03-21T03:13:11;99827.44;;;7.69;78.11
18819;BME280;9537;45.594;9.294;2023-03-21T03:14:38;99825.28;;;7.64;78.54
18819;BME280;9537;45.594;9.294;2023-03-21T03:15:51;99819.88;;;7.66;77.80
18819;BME280;9537;45.594;9.294;2023-03-21T03:17:08;99823.88;;;7.70;77.87
18819;BME280;9537;45.594;9.294;2023-03-21T03:18:20;99823.63;;;7.63;76.52
18819;BME280;9537;45.594;9.294;2023-03-21T03:19:27;99819.44;;;7.53;77.15
18819;BME280;9537;45.594;9.294;2023-03-21T03:20:35;99812.50;;;7.52;76.59
18819;BME280;9537;45.594;9.294;2023-03-21T03:21:43;99821.19;;;7.52;77.14
18819;BME280;9537;45.594;9.294;2023-03-21T03:22:53;99823.41;;;7.57;77.23
18819;BME280;9537;45.594;9.294;2023-03-21T03:24:00;99812.28;;;7.63;76.96
18819;BME280;9537;45.594;9.294;2023-03-21T03:25:04;99821.75;;;7.56;77.10
18819;BME280;9537;45.594;9.294;2023-03-21T03:26:10;99819.47;;;7.61;77.69
18819;BME280;9537;45.594;9.294;2023-03-21T03:27:16;99819.94;;;7.56;77.63
18819;BME280;9537;45.594;9.294;2023-03-21T03:28:24;99812.78;;;7.49;76.81
18819;BME280;9537;45.594;9.294;2023-03-21T03:29:28;99817.06;;;7.50;77.64
18819;BME280;9537;45.594;9.294;2023-03-21T03:30:31;99816.41;;;7.48;77.50
18819;BME280;9537;45.594;9.294;2023-03-21T03:31:35;99818.88;;;7.49;76.64
18819;BME280;9537;45.594;9.294;2023-03-21T03:32:41;99822.31;;;7.50;77.38
18819;BME280;9537;45.594;9.294;2023-03-21T03:33:48;99816.03;;;7.42;77.21
18819;BME280;9537;45.594;9.294;2023-03-21T03:34:52;99822.28;;;7.41;76.91
18819;BME280;9537;45.594;9.294;2023-03-21T03:35:56;99813.69;;;7.39;77.87
18819;BME280;9537;45.594;9.294;2023-03-21T03:37:02;99811.38;;;7.36;78.09
18819;BME280;9537;45.594;9.294;2023-03-21T03:38:06;99822.00;;;7.35;78.31
18819;BME280;9537;45.594;9.294;2023-03-21T03:39:12;99814.13;;;7.35;78.09
18819;BME280;9537;45.594;9.294;2023-03-21T03:40:15;99813.47;;;7.33;78.21
18819;BME280;9537;45.594;9.294;2023-03-21T03:41:23;99811.97;;;7.30;79.01
18819;BME280;9537;45.594;9.294;2023-03-21T03:42:29;99808.50;;;7.30;78.44
18819;BME280;9537;45.594;9.294;2023-03-21T03:43:34;99817.22;;;7.30;78.34
18819;BME280;9537;45.594;9.294;2023-03-21T03:44:38;99812.78;;;7.31;78.20
18819;BME280;9537;45.594;9.294;2023-03-21T03:45:43;99811.16;;;7.30;78.21
18819;BME280;9537;45.594;9.294;2023-03-21T03:46:51;99809.16;;;7.32;78.15
18819;BME280;9537;45.594;9.294;2023-03-21T03:48:00;99811.19;;;7.38;77.97
18819;BME280;9537;45.594;9.294;2023-03-21T03:49:07;99807.63;;;7.39;77.41
18819;BME280;9537;45.594;9.294;2023-03-21T03:50:13;99810.69;;;7.34;78.00
18819;BME280;9537;45.594;9.294;2023-03-21T03:51:22;99811.97;;;7.30;77.60
18819;BME280;9537;45.594;9.294;2023-03-21T03:52:27;99810.28;;;7.29;77.21
18819;BME280;9537;45.594;9.294;2023-03-21T03:53:35;99806.16;;;7.27;77.07
18819;BME280;9537;45.594;9.294;2023-03-21T03:54:42;99804.00;;;7.22;78.08
18819;BME280;9537;45.594;9.294;2023-03-21T03:55:45;99805.09;;;7.19;77.69
18819;BME280;9537;45.594;9.294;2023-03-21T03:56:48;99804.41;;;7.17;77.54
18819;BME280;9537;45.594;9.294;2023-03-21T03:57:49;99801.97;;;7.16;78.06
18819;BME280;9537;45.594;9.294;2023-03-21T03:58:52;99800.75;;;7.10;78.57
18819;BME280;9537;45.594;9.294;2023-03-21T03:59:54;99801.28;;;7.14;78.35
18819;BME280;9537;45.594;9.294;2023-03-21T04:00:56;99802.78;;;7.16;78.79
18819;BME280;9537;45.594;9.294;2023-03-21T04:01:57;99798.63;;;7.14;78.35
18819;BME280;9537;45.594;9.294;2023-03-21T04:03:00;99799.91;;;7.10;78.36
18819;BME280;9537;45.594;9.294;2023-03-21T04:04:01;99801.28;;;7.14;79.13
18819;BME280;9537;45.594;9.294;2023-03-21T04:05:04;99805.84;;;7.12;78.76
18819;BME280;9537;45.594;9.294;2023-03-21T04:06:05;99805.00;;;7.11;78.58
18819;BME280;9537;45.594;9.294;2023-03-21T04:07:08;99814.16;;;7.07;77.93
18819;BME280;9537;45.594;9.294;2023-03-21T04:08:09;99807.25;;;7.06;77.75
18819;BME280;9537;45.594;9.294;2023-03-21T04:09:11;99807.94;;;7.08;78.27
18819;BME280;9537;45.594;9.294;2023-03-21T04:10:13;99811.38;;;7.09;77.97
18819;BME280;9537;45.594;9.294;2023-03-21T04:11:15;99802.09;;;7.14;77.22
18819;BME280;9537;45.594;9.294;2023-03-21T04:12:16;99806.22;;;7.17;77.95
18819;BME280;9537;45.594;9.294;2023-03-21T04:13:18;99803.81;;;7.23;76.98
18819;BME280;9537;45.594;9.294;2023-03-21T04:14:19;99811.06;;;7.21;77.33
18819;BME280;9537;45.594;9.294;2023-03-21T04:15:21;99804.41;;;7.17;77.83
18819;BME280;9537;45.594;9.294;2023-03-21T04:16:22;99802.09;;;7.14;78.27
18819;BME280;9537;45.594;9.294;2023-03-21T04:17:25;99805.69;;;7.13;78.59
18819;BME280;9537;45.594;9.294;2023-03-21T04:18:26;99806.38;;;7.15;78.86
18819;BME280;9537;45.594;9.294;2023-03-21T04:19:28;99802.78;;;7.16;78.62
18819;BME280;9537;45.594;9.294;2023-03-21T04:20:29;99803.75;;;7.15;78.54
18819;BME280;9537;45.594;9.294;2023-03-21T04:21:31;99810.94;;;7.13;78.23
18819;BME280;9537;45.594;9.294;2023-03-21T04:22:32;99803.06;;;7.13;78.61
18819;BME280;9537;45.594;9.294;2023-03-21T04:23:34;99806.94;;;7.09;78.21
18819;BME280;9537;45.594;9.294;2023-03-21T04:24:36;99802.69;;;7.08;77.96
18819;BME280;9537;45.594;9.294;2023-03-21T04:25:39;99807.94;;;7.08;78.09
18819;BME280;9537;45.594;9.294;2023-03-21T04:26:40;99812.41;;;6.98;77.83
18819;BME280;9537;45.594;9.294;2023-03-21T04:27:42;99801.47;;;7.03;77.69
18819;BME280;9537;45.594;9.294;2023-03-21T04:28:46;99806.88;;;7.01;77.72
18819;BME280;9537;45.594;9.294;2023-03-21T04:29:48;99799.81;;;7.02;77.58
18819;BME280;9537;45.594;9.294;2023-03-21T04:30:49;99809.63;;;6.99;77.37
18819;BME280;9537;45.594;9.294;2023-03-21T04:31:51;99805.06;;;7.02;77.67
18819;BME280;9537;45.594;9.294;2023-03-21T04:32:52;99807.84;;;7.00;77.09
18819;BME280;9537;45.594;9.294;2023-03-21T04:33:56;99803.69;;;6.97;77.16
18819;BME280;9537;45.594;9.294;2023-03-21T04:34:57;99810.06;;;6.95;77.01
18819;BME280;9537;45.594;9.294;2023-03-21T04:35:59;99813.16;;;6.90;77.29
18819;BME280;9537;45.594;9.294;2023-03-21T04:37:00;99808.06;;;6.79;77.62
18819;BME280;9537;45.594;9.294;2023-03-21T04:38:03;99812.78;;;6.75;77.51
18819;BME280;9537;45.594;9.294;2023-03-21T04:39:04;99809.59;;;6.72;78.06
18819;BME280;9537;45.594;9.294;2023-03-21T04:40:12;99812.94;;;6.74;78.42
18819;BME280;9537;45.594;9.294;2023-03-21T04:41:18;99822.59;;;6.73;77.66
18819;BME280;9537;45.594;9.294;2023-03-21T04:42:19;99807.28;;;6.69;77.70
18819;BME280;9537;45.594;9.294;2023-03-21T04:43:21;99809.91;;;6.69;77.67
18819;BME280;9537;45.594;9.294;2023-03-21T04:44:23;99818.19;;;6.74;78.40
18819;BME280;9537;45.594;9.294;2023-03-21T04:45:26;99816.53;;;6.73;78.21
18819;BME280;9537;45.594;9.294;2023-03-21T04:46:27;99813.91;;;6.73;77.75
18819;BME280;9537;45.594;9.294;2023-03-21T04:47:29;99816.38;;;6.74;78.16
18819;BME280;9537;45.594;9.294;2023-03-21T04:48:30;99813.34;;;6.69;77.83
18819;BME280;9537;45.594;9.294;2023-03-21T04:49:32;99816.94;;;6.68;78.01
18819;BME280;9537;45.594;9.294;2023-03-21T04:50:33;99814.88;;;6.72;77.24
18819;BME280;9537;45.594;9.294;2023-03-21T04:51:36;99815.97;;;6.69;77.67
18819;BME280;9537;45.594;9.294;2023-03-21T04:52:37;99818.34;;;6.72;77.83
18819;BME280;9537;45.594;9.294;2023-03-21T04:53:39;99808.50;;;6.74;78.43
18819;BME280;9537;45.594;9.294;2023-03-21T04:54:43;99819.16;;;6.73;78.85
18819;BME280;9537;45.594;9.294;2023-03-21T04:55:45;99812.94;;;6.74;79.04
18819;BME280;9537;45.594;9.294;2023-03-21T04:56:47;99814.44;;;6.76;79.06
18819;BME280;9537;45.594;9.294;2023-03-21T04:57:51;99823.13;;;6.77;78.50
18819;BME280;9537;45.594;9.294;2023-03-21T04:58:52;99821.50;;;6.76;78.59
18819;BME280;9537;45.594;9.294;2023-03-21T04:59:54;99823.00;;;6.79;79.71
18819;BME280;9537;45.594;9.294;2023-03-21T05:00:55;99820.09;;;6.82;79.18
18819;BME280;9537;45.594;9.294;2023-03-21T05:01:57;99818.13;;;6.84;79.05
18819;BME280;9537;45.594;9.294;2023-03-21T05:02:58;99814.69;;;6.83;79.61
18819;BME280;9537;45.594;9.294;2023-03-21T05:04:01;99818.41;;;6.81;79.10
18819;BME280;9537;45.594;9.294;2023-03-21T05:05:02;99819.09;;;6.83;79.04
18819;BME280;9537;45.594;9.294;2023-03-21T05:06:05;99815.06;;;6.88;78.73
18819;BME280;9537;45.594;9.294;2023-03-21T05:07:08;99813.81;;;6.92;78.91
18819;BME280;9537;45.594;9.294;2023-03-21T05:08:10;99814.66;;;6.93;78.51
18819;BME280;9537;45.594;9.294;2023-03-21T05:09:12;99814.94;;;6.90;78.42
18819;BME280;9537;45.594;9.294;2023-03-21T05:10:14;99813.28;;;6.89;78.08
18819;BME280;9537;45.594;9.294;2023-03-21T05:11:16;99819.34;;;6.89;78.12
18819;BME280;9537;45.594;9.294;2023-03-21T05:12:19;99814.53;;;6.85;77.93
18819;BME280;9537;45.594;9.294;2023-03-21T05:13:20;99814.09;;;6.89;78.14
18819;BME280;9537;45.594;9.294;2023-03-21T05:14:24;99816.06;;;6.87;77.00
18819;BME280;9537;45.594;9.294;2023-03-21T05:15:25;99818.13;;;6.84;77.88
18819;BME280;9537;45.594;9.294;2023-03-21T05:16:27;99815.25;;;6.77;77.81
18819;BME280;9537;45.594;9.294;2023-03-21T05:17:30;99822.72;;;6.72;77.92
18819;BME280;9537;45.594;9.294;2023-03-21T05:18:32;99809.78;;;6.70;78.03
18819;BME280;9537;45.594;9.294;2023-03-21T05:19:34;99813.09;;;6.72;77.76
18819;BME280;9537;45.594;9.294;2023-03-21T05:20:40;99813.63;;;6.66;78.64
18819;BME280;9537;45.594;9.294;2023-03-21T05:21:42;99807.44;;;6.67;78.24
18819;BME280;9537;45.594;9.294;2023-03-21T05:22:44;99808.38;;;6.66;78.35
18819;BME280;9537;45.594;9.294;2023-03-21T05:23:45;99810.47;;;6.63;79.29
18819;BME280;9537;45.594;9.294;2023-03-21T05:24:53;99813.34;;;6.69;79.17
18819;BME280;9537;45.594;9.294;2023-03-21T05:25:55;99809.78;;;6.70;79.42
18819;BME280;9537;45.594;9.294;2023-03-21T05:26:57;99805.47;;;6.69;79.06
18819;BME280;9537;45.594;9.294;2023-03-21T05:28:03;99800.50;;;6.66;79.28
18819;BME280;9537;45.594;9.294;2023-03-21T05:29:06;99802.47;;;6.64;78.84
18819;BME280;9537;45.594;9.294;2023-03-21T05:30:11;99807.84;;;6.63;78.63
18819;BME280;9537;45.594;9.294;2023-03-21T05:31:13;99807.03;;;6.62;79.07
18819;BME280;9537;45.594;9.294;2023-03-21T05:32:16;99805.94;;;6.65;78.99
18819;BME280;9537;45.594;9.294;2023-03-21T05:33:18;99805.22;;;6.63;79.02
18819;BME280;9537;45.594;9.294;2023-03-21T05:34:19;99804.53;;;6.61;78.80
18819;BME280;9537;45.594;9.294;2023-03-21T05:35:21;99810.63;;;6.61;78.79
18819;BME280;9537;45.594;9.294;2023-03-21T05:36:22;99808.16;;;6.60;78.27
18819;BME280;9537;45.594;9.294;2023-03-21T05:37:24;99806.63;;;6.57;78.72
18819;BME280;9537;45.594;9.294;2023-03-21T05:38:26;99816.44;;;6.55;78.60
18819;BME280;9537;45.594;9.294;2023-03-21T05:39:28;99820.72;;;6.56;79.01
18819;BME280;9537;45.594;9.294;2023-03-21T05:40:29;99811.19;;;6.55;79.04
18819;BME280;9537;45.594;9.294;2023-03-21T05:41:31;99811.19;;;6.55;78.99
18819;BME280;9537;45.594;9.294;2023-03-21T05:42:32;99814.50;;;6.57;78.82
18819;BME280;9537;45.594;9.294;2023-03-21T05:43:35;99818.66;;;6.60;78.72
18819;BME280;9537;45.594;9.294;2023-03-21T05:44:36;99818.34;;;6.63;78.66
18819;BME280;9537;45.594;9.294;2023-03-21T05:45:40;99817.81;;;6.59;78.47
18819;BME280;9537;45.594;9.294;2023-03-21T05:46:41;99814.50;;;6.57;78.46
18819;BME280;9537;45.594;9.294;2023-03-21T05:47:43;99820.44;;;6.59;78.34
18819;BME280;9537;45.594;9.294;2023-03-21T05:48:44;99811.47;;;6.52;77.98
18819;BME280;9537;45.594;9.294;2023-03-21T05:49:46;99820.63;;;6.48;78.36
18819;BME280;9537;45.594;9.294;2023-03-21T05:50:47;99818.00;;;6.48;78.87
18819;BME280;9537;45.594;9.294;2023-03-21T05:51:50;99816.34;;;6.47;78.64
18819;BME280;9537;45.594;9.294;2023-03-21T05:52:50;99821.16;;;6.51;79.36
18819;BME280;9537;45.594;9.294;2023-03-21T05:53:53;99823.66;;;6.53;79.47
18819;BME280;9537;45.594;9.294;2023-03-21T05:54:54;99818.25;;;6.54;79.46